sensor_id;sensor_type;location;lat;lon;timestamp;pressure;altitude;pressure_sealevel;temperature;humidity
69198;BME280;56311;50.298;8.514;2022-10-22T00:00:36;97364.09;;;12.44;100.00
69198;BME280;56311;50.298;8.514;2022-10-22T00:03:03;97380.50;;;12.38;100.00
69198;BME280;56311;50.298;8.514;2022-10-22T00:05:30;97375.50;;;12.32;100.00
69198;BME280;56311;50.298;8.514;2022-10-22T00:07:56;97382.66;;;12.28;100.00
69198;BME280;56311;50.298;8.514;2022-10-22T00:10:23;97373.22;;;12.25;100.00
69198;BME280;56311;50.298;8.514;2022-10-22T00:12:50;97377.50;;;12.26;100.00
69198;BME280;56311;50.298;8.514;2022-10-22T00:15:18;97368.72;;;12.20;100.00
69198;BME280;56311;50.298;8.514;2022-10-22T00:17:45;97366.00;;;12.20;100.00
69198;BME280;56311;50.298;8.514;2022-10-22T00:20:15;97351.94;;;12.18;100.00
69198;BME280;56311;50.298;8.514;2022-10-22T00:22:42;97356.88;;;12.16;100.00
69198;BME280;56311;50.298;8.514;2022-10-22T00:25:08;97352.13;;;12.22;100.00
69198;BME280;56311;50.298;8.514;2022-10-22T00:27:35;97359.75;;;12.20;100.00
69198;BME280;56311;50.298;8.514;2022-10-22T00:30:03;97347.22;;;12.24;100.00
69198;BME280;56311;50.298;8.514;2022-10-22T00:32:31;97335.06;;;12.21;100.00
69198;BME280;56311;50.298;8.514;2022-10-22T00:34:58;97336.97;;;12.44;100.00
69198;BME280;56311;50.298;8.514;2022-10-22T00:37:25;97332.25;;;12.98;100.00
69198;BME280;56311;50.298;8.514;2022-10-22T00:39:52;97327.59;;;12.90;100.00
69198;BME280;56311;50.298;8.514;2022-10-22T00:42:20;97338.22;;;12.69;100.00
69198;BME280;56311;50.298;8.514;2022-10-22T00:45:18;97339.09;;;12.55;100.00
69198;BME280;56311;50.298;8.514;2022-10-22T00:47:50;97337.13;;;12.47;100.00
69198;BME280;56311;50.298;8.514;2022-10-22T00:50:21;97324.50;;;12.42;100.00
69198;BME280;56311;50.298;8.514;2022-10-22T00:52:49;97319.06;;;12.42;100.00
69198;BME280;56311;50.298;8.514;2022-10-22T00:55:17;97321.41;;;12.35;100.00
69198;BME280;56311;50.298;8.514;2022-10-22T00:57:45;97323.28;;;12.26;100.00
69198;BME280;56311;50.298;8.514;2022-10-22T01:00:13;97326.31;;;12.24;100.00
69198;BME280;56311;50.298;8.514;2022-10-22T01:02:40;97330.94;;;12.24;100.00
69198;BME280;56311;50.298;8.514;2022-10-22T01:05:10;97340.97;;;12.23;100.00
69198;BME280;56311;50.298;8.514;2022-10-22T01:07:41;97342.56;;;12.24;100.00
69198;BME280;56311;50.298;8.514;2022-10-22T01:10:18;97339.69;;;12.21;100.00
69198;BME280;56311;50.298;8.514;2022-10-22T01:12:54;97344.59;;;12.19;100.00
69198;BME280;56311;50.298;8.514;2022-10-22T01:15:28;97333.47;;;12.20;100.00
69198;BME280;56311;50.298;8.514;2022-10-22T01:18:01;97334.25;;;12.21;100.00
69198;BME280;56311;50.298;8.514;2022-10-22T01:20:45;97348.44;;;12.18;100.00
69198;BME280;56311;50.298;8.514;2022-10-22T01:23:27;97363.56;;;12.19;100.00
69198;BME280;56311;50.298;8.514;2022-10-22T01:26:04;97368.41;;;12.22;100.00
69198;BME280;56311;50.298;8.514;2022-10-22T01:28:59;97373.81;;;12.22;100.00
69198;BME280;56311;50.298;8.514;2022-10-22T01:31:29;97384.53;;;12.27;100.00
69198;BME280;56311;50.298;8.514;2022-10-22T01:33:58;62402.38;;;-147.88;100.00
69198;BME280;56311;50.298;8.514;2022-10-22T01:36:28;97368.31;;;12.90;100.00
69198;BME280;56311;50.298;8.514;2022-10-22T01:38:57;62402.38;;;-147.88;100.00
69198;BME280;56311;50.298;8.514;2022-10-22T01:41:26;62402.38;;;-147.88;100.00
69198;BME280;56311;50.298;8.514;2022-10-22T01:43:53;62402.38;;;-147.88;100.00
69198;BME280;56311;50.298;8.514;2022-10-22T01:46:23;97368.69;;;12.43;100.00
69198;BME280;56311;50.298;8.514;2022-10-22T01:49:01;97362.09;;;12.35;100.00
69198;BME280;56311;50.298;8.514;2022-10-22T01:51:48;97362.44;;;12.34;100.00
69198;BME280;56311;50.298;8.514;2022-10-22T01:54:28;97355.34;;;12.24;100.00
69198;BME280;56311;50.298;8.514;2022-10-22T01:57:06;62402.38;;;-147.88;100.00
69198;BME280;56311;50.298;8.514;2022-10-22T01:59:42;62402.38;;;-147.88;100.00
69198;BME280;56311;50.298;8.514;2022-10-22T02:02:22;62402.38;;;-147.88;100.00
69198;BME280;56311;50.298;8.514;2022-10-22T02:04:56;97355.34;;;12.24;100.00
69198;BME280;56311;50.298;8.514;2022-10-22T02:07:27;97355.34;;;12.24;100.00
69198;BME280;56311;50.298;8.514;2022-10-22T02:09:56;62402.38;;;-147.88;100.00
69198;BME280;56311;50.298;8.514;2022-10-22T02:12:26;62402.38;;;-147.88;100.00
69198;BME280;56311;50.298;8.514;2022-10-22T02:14:55;62402.38;;;-147.88;100.00
69198;BME280;56311;50.298;8.514;2022-10-22T02:17:26;62402.38;;;-147.88;100.00
69198;BME280;56311;50.298;8.514;2022-10-22T02:19:56;62402.38;;;-147.88;100.00
69198;BME280;56311;50.298;8.514;2022-10-22T02:22:25;62402.38;;;-147.88;100.00
69198;BME280;56311;50.298;8.514;2022-10-22T02:24:53;97350.16;;;12.14;100.00
69198;BME280;56311;50.298;8.514;2022-10-22T02:27:23;97344.66;;;12.05;100.00
69198;BME280;56311;50.298;8.514;2022-10-22T02:29:57;97344.88;;;11.94;100.00
69198;BME280;56311;50.298;8.514;2022-10-22T02:32:31;97347.56;;;11.94;100.00
69198;BME280;56311;50.298;8.514;2022-10-22T02:35:00;97351.69;;;11.92;100.00
69198;BME280;56311;50.298;8.514;2022-10-22T02:37:27;97361.63;;;12.10;100.00
69198;BME280;56311;50.298;8.514;2022-10-22T02:39:54;97372.59;;;12.28;100.00
69198;BME280;56311;50.298;8.514;2022-10-22T02:42:23;97371.72;;;12.41;100.00
69198;BME280;56311;50.298;8.514;2022-10-22T02:44:50;97371.91;;;12.45;100.00
69198;BME280;56311;50.298;8.514;2022-10-22T02:47:17;97367.13;;;12.42;100.00
69198;BME280;56311;50.298;8.514;2022-10-22T02:49:45;97381.84;;;12.27;100.00
69198;BME280;56311;50.298;8.514;2022-10-22T02:52:12;97407.28;;;12.17;100.00
69198;BME280;56311;50.298;8.514;2022-10-22T02:54:38;97399.81;;;12.00;100.00
69198;BME280;56311;50.298;8.514;2022-10-22T02:57:05;97398.78;;;11.96;100.00
69198;BME280;56311;50.298;8.514;2022-10-22T02:59:32;97402.84;;;11.99;100.00
69198;BME280;56311;50.298;8.514;2022-10-22T03:01:58;97416.06;;;12.00;100.00
69198;BME280;56311;50.298;8.514;2022-10-22T03:04:25;97404.19;;;12.10;100.00
69198;BME280;56311;50.298;8.514;2022-10-22T03:06:53;97394.09;;;12.24;100.00
69198;BME280;56311;50.298;8.514;2022-10-22T03:09:20;97391.88;;;12.26;100.00
69198;BME280;56311;50.298;8.514;2022-10-22T03:11:50;97379.94;;;12.28;100.00
69198;BME280;56311;50.298;8.514;2022-10-22T03:14:17;97383.44;;;12.28;100.00
69198;BME280;56311;50.298;8.514;2022-10-22T03:16:44;97394.16;;;12.33;100.00
69198;BME280;56311;50.298;8.514;2022-10-22T03:19:11;97394.84;;;12.39;100.00
69198;BME280;56311;50.298;8.514;2022-10-22T03:21:39;97396.44;;;12.40;100.00
69198;BME280;56311;50.298;8.514;2022-10-22T03:24:12;97394.06;;;12.38;100.00
69198;BME280;56311;50.298;8.514;2022-10-22T03:26:40;97396.44;;;12.40;100.00
69198;BME280;56311;50.298;8.514;2022-10-22T03:29:09;97398.84;;;12.41;100.00
69198;BME280;56311;50.298;8.514;2022-10-22T03:31:36;97398.84;;;12.41;100.00
69198;BME280;56311;50.298;8.514;2022-10-22T03:34:03;97402.06;;;12.44;100.00
69198;BME280;56311;50.298;8.514;2022-10-22T03:36:30;97399.84;;;12.46;100.00
69198;BME280;56311;50.298;8.514;2022-10-22T03:38:57;97395.41;;;12.50;100.00
69198;BME280;56311;50.298;8.514;2022-10-22T03:41:26;97398.44;;;12.48;100.00
69198;BME280;56311;50.298;8.514;2022-10-22T03:43:54;97398.72;;;12.47;100.00
69198;BME280;56311;50.298;8.514;2022-10-22T03:46:21;97398.53;;;12.43;100.00
69198;BME280;56311;50.298;8.514;2022-10-22T03:48:47;97405.88;;;12.42;100.00
69198;BME280;56311;50.298;8.514;2022-10-22T03:51:14;97420.31;;;12.52;100.00
69198;BME280;56311;50.298;8.514;2022-10-22T03:53:41;97427.47;;;12.70;100.00
69198;BME280;56311;50.298;8.514;2022-10-22T03:56:08;97434.69;;;12.75;100.00
69198;BME280;56311;50.298;8.514;2022-10-22T03:58:38;97438.69;;;12.78;100.00
69198;BME280;56311;50.298;8.514;2022-10-22T04:01:05;97433.44;;;12.81;100.00
69198;BME280;56311;50.298;8.514;2022-10-22T04:03:32;97435.81;;;12.83;100.00
69198;BME280;56311;50.298;8.514;2022-10-22T04:06:01;97430.41;;;12.83;100.00
69198;BME280;56311;50.298;8.514;2022-10-22T04:08:27;97436.81;;;12.87;100.00
69198;BME280;56311;50.298;8.514;2022-10-22T04:10:54;97438.63;;;12.92;100.00
69198;BME280;56311;50.298;8.514;2022-10-22T04:13:21;97446.75;;;12.92;100.00
69198;BME280;56311;50.298;8.514;2022-10-22T04:15:49;97455.19;;;12.90;100.00
69198;BME280;56311;50.298;8.514;2022-10-22T04:18:17;97439.53;;;12.87;100.00
69198;BME280;56311;50.298;8.514;2022-10-22T04:20:44;97435.81;;;12.83;100.00
69198;BME280;56311;50.298;8.514;2022-10-22T04:23:12;97435.47;;;12.76;100.00
69198;BME280;56311;50.298;8.514;2022-10-22T04:25:39;97448.84;;;12.72;100.00
69198;BME280;56311;50.298;8.514;2022-10-22T04:28:06;97450.28;;;12.69;100.00
69198;BME280;56311;50.298;8.514;2022-10-22T04:30:33;97444.97;;;12.64;100.00
69198;BME280;56311;50.298;8.514;2022-10-22T04:33:02;97450.03;;;12.57;100.00
69198;BME280;56311;50.298;8.514;2022-10-22T04:35:29;97471.56;;;12.53;100.00
69198;BME280;56311;50.298;8.514;2022-10-22T04:37:56;97472.59;;;12.44;100.00
69198;BME280;56311;50.298;8.514;2022-10-22T04:40:22;97473.72;;;12.42;100.00
69198;BME280;56311;50.298;8.514;2022-10-22T04:42:49;97477.84;;;12.40;100.00
69198;BME280;56311;50.298;8.514;2022-10-22T04:45:16;97469.69;;;12.40;100.00
69198;BME280;56311;50.298;8.514;2022-10-22T04:47:43;97474.81;;;12.41;100.00
69198;BME280;56311;50.298;8.514;2022-10-22T04:50:11;97475.91;;;12.40;100.00
69198;BME280;56311;50.298;8.514;2022-10-22T04:52:37;97466.66;;;12.41;100.00
69198;BME280;56311;50.298;8.514;2022-10-22T04:55:04;97472.09;;;12.41;100.00
69198;BME280;56311;50.298;8.514;2022-10-22T04:57:31;97472.09;;;12.41;100.00
69198;BME280;56311;50.298;8.514;2022-10-22T04:59:58;97476.22;;;12.39;100.00
69198;BME280;56311;50.298;8.514;2022-10-22T05:02:25;97469.00;;;12.34;100.00
69198;BME280;56311;50.298;8.514;2022-10-22T05:04:52;97471.84;;;12.29;100.00
69198;BME280;56311;50.298;8.514;2022-10-22T05:07:20;97467.91;;;12.35;100.00
69198;BME280;56311;50.298;8.514;2022-10-22T05:09:46;97471.41;;;12.36;100.00
69198;BME280;56311;50.298;8.514;2022-10-22T05:12:13;97466.97;;;12.40;100.00
69198;BME280;56311;50.298;8.514;2022-10-22T05:14:40;97465.75;;;12.46;100.00
69198;BME280;56311;50.298;8.514;2022-10-22T05:17:10;97461.13;;;12.47;100.00
69198;BME280;56311;50.298;8.514;2022-10-22T05:19:37;97460.09;;;12.56;100.00
69198;BME280;56311;50.298;8.514;2022-10-22T05:22:04;97468.44;;;12.60;100.00
69198;BME280;56311;50.298;8.514;2022-10-22T05:24:33;97471.44;;;12.58;100.00
69198;BME280;56311;50.298;8.514;2022-10-22T05:27:01;97476.97;;;12.53;100.00
69198;BME280;56311;50.298;8.514;2022-10-22T05:29:28;97483.31;;;12.49;100.00
69198;BME280;56311;50.298;8.514;2022-10-22T05:31:54;97486.22;;;12.52;100.00
69198;BME280;56311;50.298;8.514;2022-10-22T05:34:21;97490.03;;;12.51;100.00
69198;BME280;56311;50.298;8.514;2022-10-22T05:36:48;97489.63;;;12.58;100.00
69198;BME280;56311;50.298;8.514;2022-10-22T05:39:15;97492.22;;;12.63;100.00
69198;BME280;56311;50.298;8.514;2022-10-22T05:41:43;97494.34;;;12.66;100.00
69198;BME280;56311;50.298;8.514;2022-10-22T05:44:11;97498.53;;;12.72;100.00
69198;BME280;56311;50.298;8.514;2022-10-22T05:46:38;97503.22;;;12.81;100.00
69198;BME280;56311;50.298;8.514;2022-10-22T05:49:06;97496.38;;;12.83;100.00
69198;BME280;56311;50.298;8.514;2022-10-22T05:51:35;97508.94;;;12.79;100.00
69198;BME280;56311;50.298;8.514;2022-10-22T05:54:04;97503.03;;;12.77;100.00
69198;BME280;56311;50.298;8.514;2022-10-22T05:56:31;97505.94;;;12.81;100.00
69198;BME280;56311;50.298;8.514;2022-10-22T05:59:00;97501.25;;;12.72;100.00
69198;BME280;56311;50.298;8.514;2022-10-22T06:01:32;97512.22;;;12.67;100.00
69198;BME280;56311;50.298;8.514;2022-10-22T06:04:03;97508.31;;;12.60;100.00
69198;BME280;56311;50.298;8.514;2022-10-22T06:06:33;97506.41;;;12.60;100.00
69198;BME280;56311;50.298;8.514;2022-10-22T06:09:04;97507.34;;;12.55;100.00
69198;BME280;56311;50.298;8.514;2022-10-22T06:11:32;97510.16;;;12.50;100.00
69198;BME280;56311;50.298;8.514;2022-10-22T06:14:02;97501.81;;;12.47;100.00
69198;BME280;56311;50.298;8.514;2022-10-22T06:16:29;97508.97;;;12.42;100.00
69198;BME280;56311;50.298;8.514;2022-10-22T06:18:58;97513.69;;;12.37;100.00
69198;BME280;56311;50.298;8.514;2022-10-22T06:21:25;97518.94;;;12.33;100.00
69198;BME280;56311;50.298;8.514;2022-10-22T06:23:54;97518.47;;;12.31;100.00
69198;BME280;56311;50.298;8.514;2022-10-22T06:26:21;97528.22;;;12.32;100.00
69198;BME280;56311;50.298;8.514;2022-10-22T06:28:48;97528.22;;;12.32;100.00
69198;BME280;56311;50.298;8.514;2022-10-22T06:31:17;97535.00;;;12.30;100.00
69198;BME280;56311;50.298;8.514;2022-10-22T06:33:43;97540.56;;;12.24;100.00
69198;BME280;56311;50.298;8.514;2022-10-22T06:36:12;97549.13;;;12.18;100.00
69198;BME280;56311;50.298;8.514;2022-10-22T06:38:40;97549.50;;;12.11;100.00
69198;BME280;56311;50.298;8.514;2022-10-22T06:41:08;97548.59;;;12.02;100.00
69198;BME280;56311;50.298;8.514;2022-10-22T06:43:35;97551.50;;;11.91;100.00
69198;BME280;56311;50.298;8.514;2022-10-22T06:46:04;97559.72;;;11.86;100.00
69198;BME280;56311;50.298;8.514;2022-10-22T06:48:34;97568.78;;;11.82;100.00
69198;BME280;56311;50.298;8.514;2022-10-22T06:51:04;97577.28;;;11.75;100.00
69198;BME280;56311;50.298;8.514;2022-10-22T06:53:32;97574.69;;;11.70;100.00
69198;BME280;56311;50.298;8.514;2022-10-22T06:56:03;97581.91;;;11.74;100.00
69198;BME280;56311;50.298;8.514;2022-10-22T06:58:30;97587.75;;;11.82;100.00
69198;BME280;56311;50.298;8.514;2022-10-22T07:01:01;97585.66;;;11.92;100.00
69198;BME280;56311;50.298;8.514;2022-10-22T07:03:29;97595.59;;;11.97;100.00
69198;BME280;56311;50.298;8.514;2022-10-22T07:05:59;97595.00;;;12.00;100.00
69198;BME280;56311;50.298;8.514;2022-10-22T07:08:27;97594.81;;;12.10;100.00
69198;BME280;56311;50.298;8.514;2022-10-22T07:10:55;97602.75;;;12.21;100.00
69198;BME280;56311;50.298;8.514;2022-10-22T07:13:22;97601.25;;;12.29;100.00
69198;BME280;56311;50.298;8.514;2022-10-22T07:15:51;97608.66;;;12.37;100.00
69198;BME280;56311;50.298;8.514;2022-10-22T07:18:20;97610.16;;;12.43;100.00
69198;BME280;56311;50.298;8.514;2022-10-22T07:20:47;97611.44;;;12.60;100.00
69198;BME280;56311;50.298;8.514;2022-10-22T07:23:15;97610.78;;;12.77;100.00
69198;BME280;56311;50.298;8.514;2022-10-22T07:25:42;97629.06;;;12.85;100.00
69198;BME280;56311;50.298;8.514;2022-10-22T07:28:10;97624.03;;;12.92;100.00
69198;BME280;56311;50.298;8.514;2022-10-22T07:30:37;97633.66;;;12.98;100.00
69198;BME280;56311;50.298;8.514;2022-10-22T07:33:05;97631.31;;;13.05;100.00
69198;BME280;56311;50.298;8.514;2022-10-22T07:35:32;97626.66;;;13.20;100.00
69198;BME280;56311;50.298;8.514;2022-10-22T07:38:00;97630.38;;;13.24;100.00
69198;BME280;56311;50.298;8.514;2022-10-22T07:40:29;97640.78;;;13.31;100.00
69198;BME280;56311;50.298;8.514;2022-10-22T07:42:56;97639.31;;;13.39;100.00
69198;BME280;56311;50.298;8.514;2022-10-22T07:45:22;97646.69;;;13.47;100.00
69198;BME280;56311;50.298;8.514;2022-10-22T07:47:49;97653.63;;;13.53;100.00
69198;BME280;56311;50.298;8.514;2022-10-22T07:50:17;97660.16;;;13.52;100.00
69198;BME280;56311;50.298;8.514;2022-10-22T07:52:44;97657.31;;;13.57;100.00
69198;BME280;56311;50.298;8.514;2022-10-22T07:55:11;97670.16;;;13.65;100.00
69198;BME280;56311;50.298;8.514;2022-10-22T07:57:40;97667.63;;;13.69;100.00
69198;BME280;56311;50.298;8.514;2022-10-22T08:00:08;97669.34;;;13.65;100.00
69198;BME280;56311;50.298;8.514;2022-10-22T08:02:35;97673.84;;;13.47;100.00
69198;BME280;56311;50.298;8.514;2022-10-22T08:05:02;97670.56;;;13.36;100.00
69198;BME280;56311;50.298;8.514;2022-10-22T08:07:29;97673.06;;;13.32;100.00
69198;BME280;56311;50.298;8.514;2022-10-22T08:09:56;97677.91;;;13.35;100.00
69198;BME280;56311;50.298;8.514;2022-10-22T08:12:23;97679.53;;;13.36;100.00
69198;BME280;56311;50.298;8.514;2022-10-22T08:14:52;97675.19;;;13.35;100.00
69198;BME280;56311;50.298;8.514;2022-10-22T08:17:19;97687.81;;;13.54;100.00
69198;BME280;56311;50.298;8.514;2022-10-22T08:19:46;97685.97;;;13.41;100.00
69198;BME280;56311;50.298;8.514;2022-10-22T08:22:13;97694.50;;;13.48;100.00
69198;BME280;56311;50.298;8.514;2022-10-22T08:24:40;97695.31;;;13.48;100.00
69198;BME280;56311;50.298;8.514;2022-10-22T08:27:07;97690.13;;;13.61;100.00
69198;BME280;56311;50.298;8.514;2022-10-22T08:29:34;97683.13;;;13.68;100.00
69198;BME280;56311;50.298;8.514;2022-10-22T08:32:03;97692.09;;;13.69;100.00
69198;BME280;56311;50.298;8.514;2022-10-22T08:34:30;97697.22;;;13.71;100.00
69198;BME280;56311;50.298;8.514;2022-10-22T08:36:57;97702.16;;;13.91;100.00
69198;BME280;56311;50.298;8.514;2022-10-22T08:39:24;97696.19;;;14.12;100.00
69198;BME280;56311;50.298;8.514;2022-10-22T08:42:00;97697.19;;;14.16;100.00
69198;BME280;56311;50.298;8.514;2022-10-22T08:44:42;97708.41;;;14.23;100.00
69198;BME280;56311;50.298;8.514;2022-10-22T08:47:29;97708.13;;;14.33;100.00
69198;BME280;56311;50.298;8.514;2022-10-22T08:50:03;97713.44;;;14.39;100.00
69198;BME280;56311;50.298;8.514;2022-10-22T08:52:31;62402.38;;;-147.88;95.95
69198;BME280;56311;50.298;8.514;2022-10-22T08:55:01;81630.03;;;-147.88;100.00
69198;BME280;56311;50.298;8.514;2022-10-22T08:57:39;107000.00;;;-147.88;100.00
69198;BME280;56311;50.298;8.514;2022-10-22T09:00:12;97720.22;;;14.59;100.00
69198;BME280;56311;50.298;8.514;2022-10-22T09:02:50;97712.34;;;14.80;100.00
69198;BME280;56311;50.298;8.514;2022-10-22T09:05:32;97719.00;;;15.32;100.00
69198;BME280;56311;50.298;8.514;2022-10-22T09:08:04;97715.13;;;15.50;100.00
69198;BME280;56311;50.298;8.514;2022-10-22T09:10:35;97718.00;;;15.63;100.00
69198;BME280;56311;50.298;8.514;2022-10-22T09:13:04;62402.38;;;-147.88;100.00
69198;BME280;56311;50.298;8.514;2022-10-22T09:15:31;62402.38;;;-147.88;100.00
69198;BME280;56311;50.298;8.514;2022-10-22T09:18:05;62402.38;;;-147.88;100.00
69198;BME280;56311;50.298;8.514;2022-10-22T09:20:43;62402.38;;;-147.88;100.00
69198;BME280;56311;50.298;8.514;2022-10-22T09:23:20;62402.38;;;-147.88;100.00
69198;BME280;56311;50.298;8.514;2022-10-22T09:25:50;62402.38;;;-147.88;100.00
69198;BME280;56311;50.298;8.514;2022-10-22T09:28:18;62402.38;;;-147.88;100.00
69198;BME280;56311;50.298;8.514;2022-10-22T09:30:45;62402.38;;;-147.88;100.00
69198;BME280;56311;50.298;8.514;2022-10-22T09:33:16;62402.38;;;-147.88;100.00
69198;BME280;56311;50.298;8.514;2022-10-22T09:35:51;62402.38;;;-147.88;100.00
69198;BME280;56311;50.298;8.514;2022-10-22T09:38:20;97718.00;;;15.63;100.00
69198;BME280;56311;50.298;8.514;2022-10-22T09:40:51;97740.78;;;15.93;100.00
69198;BME280;56311;50.298;8.514;2022-10-22T09:43:18;97743.69;;;15.79;100.00
69198;BME280;56311;50.298;8.514;2022-10-22T09:45:47;97741.94;;;15.83;100.00
69198;BME280;56311;50.298;8.514;2022-10-22T09:48:21;97743.38;;;15.89;100.00
69198;BME280;56311;50.298;8.514;2022-10-22T09:51:16;62402.38;;;-147.88;100.00
69198;BME280;56311;50.298;8.514;2022-10-22T09:53:55;97743.38;;;15.89;100.00
69198;BME280;56311;50.298;8.514;2022-10-22T09:56:25;97746.06;;;16.07;100.00
69198;BME280;56311;50.298;8.514;2022-10-22T09:58:55;97749.41;;;16.21;100.00
69198;BME280;56311;50.298;8.514;2022-10-22T10:01:27;97755.34;;;16.71;100.00
69198;BME280;56311;50.298;8.514;2022-10-22T10:04:01;97758.19;;;16.83;100.00
69198;BME280;56311;50.298;8.514;2022-10-22T10:06:35;97756.50;;;17.30;99.96
69198;BME280;56311;50.298;8.514;2022-10-22T10:09:05;97757.56;;;17.38;98.79
69198;BME280;56311;50.298;8.514;2022-10-22T10:11:41;97762.19;;;17.46;100.00
69198;BME280;56311;50.298;8.514;2022-10-22T10:14:14;97753.84;;;17.42;99.29
69198;BME280;56311;50.298;8.514;2022-10-22T10:16:54;97753.84;;;17.42;99.29
69198;BME280;56311;50.298;8.514;2022-10-22T10:19:38;97762.19;;;17.67;94.63
69198;BME280;56311;50.298;8.514;2022-10-22T10:22:16;97756.56;;;17.85;92.52
69198;BME280;56311;50.298;8.514;2022-10-22T10:24:56;97769.25;;;17.68;93.42
69198;BME280;56311;50.298;8.514;2022-10-22T10:27:34;97767.56;;;16.74;95.64
69198;BME280;56311;50.298;8.514;2022-10-22T10:30:10;97755.78;;;16.82;98.72
69198;BME280;56311;50.298;8.514;2022-10-22T10:32:51;97761.09;;;16.39;100.00
69198;BME280;56311;50.298;8.514;2022-10-22T10:35:26;97769.97;;;16.19;100.00
69198;BME280;56311;50.298;8.514;2022-10-22T10:38:09;97765.16;;;16.25;100.00
69198;BME280;56311;50.298;8.514;2022-10-22T10:40:47;97768.41;;;16.09;100.00
69198;BME280;56311;50.298;8.514;2022-10-22T10:43:21;97767.94;;;16.63;100.00
69198;BME280;56311;50.298;8.514;2022-10-22T10:45:59;97760.91;;;16.83;100.00
69198;BME280;56311;50.298;8.514;2022-10-22T10:48:38;97756.03;;;17.28;94.81
69198;BME280;56311;50.298;8.514;2022-10-22T10:51:22;97757.25;;;17.81;94.01
69198;BME280;56311;50.298;8.514;2022-10-22T10:54:01;97759.09;;;18.11;93.46
69198;BME280;56311;50.298;8.514;2022-10-22T10:56:36;97761.44;;;18.34;90.11
69198;BME280;56311;50.298;8.514;2022-10-22T10:59:14;97750.59;;;18.25;86.73
69198;BME280;56311;50.298;8.514;2022-10-22T11:01:51;97756.34;;;18.69;88.72
69198;BME280;56311;50.298;8.514;2022-10-22T11:04:42;97763.47;;;18.95;85.03
69198;BME280;56311;50.298;8.514;2022-10-22T11:07:19;97754.72;;;18.31;84.51
69198;BME280;56311;50.298;8.514;2022-10-22T11:10:06;97755.22;;;18.70;85.49
69198;BME280;56311;50.298;8.514;2022-10-22T11:12:40;97752.34;;;18.79;84.60
69198;BME280;56311;50.298;8.514;2022-10-22T11:15:19;97754.31;;;18.91;82.56
69198;BME280;56311;50.298;8.514;2022-10-22T11:17:52;97753.31;;;18.96;82.51
69198;BME280;56311;50.298;8.514;2022-10-22T11:20:26;62402.38;;;-147.88;100.00
69198;BME280;56311;50.298;8.514;2022-10-22T11:22:58;62402.38;;;-147.88;100.00
69198;BME280;56311;50.298;8.514;2022-10-22T11:25:47;97754.91;;;18.97;80.20
69198;BME280;56311;50.298;8.514;2022-10-22T11:28:19;97758.31;;;19.18;79.61
69198;BME280;56311;50.298;8.514;2022-10-22T11:30:50;97769.13;;;19.52;78.00
69198;BME280;56311;50.298;8.514;2022-10-22T11:33:23;97762.41;;;19.37;80.70
69198;BME280;56311;50.298;8.514;2022-10-22T11:35:53;97779.22;;;19.35;76.93
69198;BME280;56311;50.298;8.514;2022-10-22T11:38:24;97774.66;;;19.15;79.99
69198;BME280;56311;50.298;8.514;2022-10-22T11:40:57;97770.97;;;18.86;83.56
69198;BME280;56311;50.298;8.514;2022-10-22T11:43:28;97770.09;;;18.94;81.96
69198;BME280;56311;50.298;8.514;2022-10-22T11:46:23;97771.44;;;19.37;78.69
69198;BME280;56311;50.298;8.514;2022-10-22T11:49:04;97758.25;;;19.43;77.60
69198;BME280;56311;50.298;8.514;2022-10-22T11:51:43;97765.72;;;19.43;77.99
69198;BME280;56311;50.298;8.514;2022-10-22T11:54:31;97757.53;;;19.71;77.47
69198;BME280;56311;50.298;8.514;2022-10-22T11:57:20;97762.00;;;19.63;77.05
69198;BME280;56311;50.298;8.514;2022-10-22T11:59:50;97756.00;;;20.14;76.10
69198;BME280;56311;50.298;8.514;2022-10-22T12:02:30;97758.78;;;20.30;75.31
69198;BME280;56311;50.298;8.514;2022-10-22T12:08:21;97765.34;;;19.56;76.44
69198;BME280;56311;50.298;8.514;2022-10-22T12:10:59;97760.84;;;19.11;78.69
69198;BME280;56311;50.298;8.514;2022-10-22T12:13:30;97754.84;;;19.46;77.02
69198;BME280;56311;50.298;8.514;2022-10-22T12:16:00;97748.78;;;19.53;77.53
69198;BME280;56311;50.298;8.514;2022-10-22T12:18:34;97755.78;;;19.38;77.07
69198;BME280;56311;50.298;8.514;2022-10-22T12:21:02;97749.09;;;19.51;79.08
69198;BME280;56311;50.298;8.514;2022-10-22T12:23:31;97745.06;;;19.61;74.58
69198;BME280;56311;50.298;8.514;2022-10-22T12:26:02;97743.72;;;19.14;76.96
69198;BME280;56311;50.298;8.514;2022-10-22T12:28:37;97754.31;;;19.28;77.90
69198;BME280;56311;50.298;8.514;2022-10-22T12:31:05;97744.75;;;19.50;77.50
69198;BME280;56311;50.298;8.514;2022-10-22T12:33:32;97744.06;;;19.53;75.85
69198;BME280;56311;50.298;8.514;2022-10-22T12:35:59;97742.75;;;19.88;78.19
69198;BME280;56311;50.298;8.514;2022-10-22T12:38:30;97747.06;;;19.48;75.06
69198;BME280;56311;50.298;8.514;2022-10-22T12:40:57;97748.38;;;19.67;74.22
69198;BME280;56311;50.298;8.514;2022-10-22T12:43:26;97748.56;;;20.15;74.91
69198;BME280;56311;50.298;8.514;2022-10-22T12:45:54;97759.50;;;20.43;72.46
69198;BME280;56311;50.298;8.514;2022-10-22T12:48:25;97749.41;;;20.31;72.50
69198;BME280;56311;50.298;8.514;2022-10-22T12:50:54;97760.03;;;18.98;75.43
69198;BME280;56311;50.298;8.514;2022-10-22T12:53:24;97752.47;;;18.45;79.90
69198;BME280;56311;50.298;8.514;2022-10-22T12:55:53;97758.75;;;18.12;81.51
69198;BME280;56311;50.298;8.514;2022-10-22T12:58:26;97764.50;;;17.77;84.22
69198;BME280;56311;50.298;8.514;2022-10-22T13:00:55;97759.47;;;17.46;85.66
69198;BME280;56311;50.298;8.514;2022-10-22T13:03:29;97759.13;;;17.26;86.21
69198;BME280;56311;50.298;8.514;2022-10-22T13:06:11;97754.34;;;17.14;89.27
69198;BME280;56311;50.298;8.514;2022-10-22T13:08:38;97764.03;;;17.12;87.91
69198;BME280;56311;50.298;8.514;2022-10-22T13:11:08;97762.69;;;17.18;88.83